Garryowen, MT (59031)

12:30 AM MDT on July 25, 2016 (GMT -0600)
Sheridan County | | Change Station

Elev 3967 ft 44.76 °N, 106.97 °W | Updated 37 minutes ago

Clear
Clear
63 °F
Feels Like 63 °F
N
5
Wind Variable Wind from WSW

Today
High -- | Low -- °F
--% Chance of Precip.
Yesterday
High -- | Low -- °F
Precip. -- in
Pressure 29.95 in
Visibility 10.0 miles
Clouds Clear
Dew Point 46 °F
Humidity 54%
Rainfall 0.00 in
Snow Depth Not available.
5:45 AM 8:44 PM
Waning Gibbous, 69% visible
METAR KSHR 250553Z AUTO 25004KT 10SM CLR 17/08 A3006 RMK AO2 SLP140 T01720078 10333 20167 50005
Pressure 29.95 in
Visibility 10.0 miles
Clouds Clear
Dew Point 46 °F
Humidity 54%
Rainfall 0.00 in
Snow Depth Not available.
5:45 AM 8:44 PM
Waning Gibbous, 69% visible
METAR KSHR 250553Z AUTO 25004KT 10SM CLR 17/08 A3006 RMK AO2 SLP140 T01720078 10333 20167 50005

10-Day Weather Forecast

Almanac

Astronomy

Jul. 25, 2016 Rise Set
Actual Time
Civil Twilight
Nautical Twilight
Astronomical Twilight
Moon
Length of Visible Light
Length of Day
Tomorrow will be .
, % of the Moon is Illuminated

Today's Extremes

State Highs State Lows

Community

WunderPhotos

Upload Photos

1,927,275 photos uploaded!

WunderBlog® & News

Nearby

Air Quality

  Air Quality AQ Index Pollutant
Not available.

Snow Depth

Station Depth Elevation

Earthquake Activity

City Distance Mag. Time & Date
Minimum magnitude displayed is 2.5.

Coastal Water Temperatures

Place Temperature

Stations

Nearby Weather Stations

Station Location Temp. Windchill Dew Point Humidity Wind Precip. Elev Updated Type
                   

Watches & Warnings

There are currently no watches in effect.